Time;durP1;ratioP1;P1;durP2;ratioP2;P2;SDS_P1;SDS_P2;PMS_P1;PMS_P2;Temp;Humidity;BMP_temperature;BMP_pressure;BME280_temperature;BME280_humidity;BME280_pressure;Samples;Min_cycle;Max_cycle;Signal;HPM_P1;HPM_P2
2022/05/08 00:00:34;;;;;;;1.10;1.00;;;19.60;62.00;;;;;;5032625;28;20550;-70
2022/05/08 00:03:00;;;;;;;0.70;0.70;;;19.60;61.90;;;;;;5034071;28;20484;-70
2022/05/08 00:05:26;;;;;;;0.93;0.93;;;19.60;61.90;;;;;;5033949;28;20110;-70
2022/05/08 00:07:51;;;;;;;1.70;1.00;;;19.60;62.00;;;;;;5016202;28;20025;-70
2022/05/08 00:10:17;;;;;;;0.90;0.90;;;19.60;62.00;;;;;;5033619;28;20515;-70
2022/05/08 00:12:43;;;;;;;0.80;0.80;;;19.60;62.00;;;;;;5032881;28;20018;-71
2022/05/08 00:15:09;;;;;;;0.90;0.90;;;19.60;62.10;;;;;;5032333;28;20083;-70
2022/05/08 00:17:35;;;;;;;0.93;0.90;;;19.60;62.00;;;;;;5033554;28;20029;-70
2022/05/08 00:20:05;;;;;;;1.02;1.00;;;19.60;62.00;;;;;;5032232;28;20110;-70
2022/05/08 00:22:30;;;;;;;1.10;1.00;;;19.60;62.00;;;;;;5033839;28;20022;-70
2022/05/08 00:24:56;;;;;;;0.82;0.80;;;19.60;61.90;;;;;;5032339;28;20026;-70
2022/05/08 00:27:22;;;;;;;1.58;1.00;;;19.60;61.90;;;;;;5033616;28;20032;-70
2022/05/08 00:29:47;;;;;;;0.90;0.90;;;19.60;63.00;;;;;;5031906;28;20029;-70
2022/05/08 00:32:13;;;;;;;0.90;0.90;;;19.60;61.90;;;;;;5033406;28;20039;-70
2022/05/08 00:34:38;;;;;;;0.80;0.80;;;19.60;61.90;;;;;;5032891;28;20036;-70
2022/05/08 00:37:05;;;;;;;1.00;1.00;;;19.60;62.00;;;;;;5032102;28;20029;-70
2022/05/08 00:39:32;;;;;;;0.80;0.80;;;19.50;61.90;;;;;;5033152;28;20542;-70
2022/05/08 00:42:00;;;;;;;1.10;1.00;;;19.60;61.90;;;;;;5031876;28;20526;-70
2022/05/08 00:44:26;;;;;;;1.45;0.95;;;19.50;61.90;;;;;;5032758;28;20439;-70
2022/05/08 00:46:52;;;;;;;1.30;1.05;;;19.50;61.90;;;;;;5032040;28;20027;-70
2022/05/08 00:49:17;;;;;;;1.55;0.98;;;19.50;61.90;;;;;;5033025;28;20121;-70
2022/05/08 00:51:47;;;;;;;1.27;1.17;;;19.50;61.90;;;;;;5033095;28;20045;-70
2022/05/08 00:54:12;;;;;;;1.00;1.00;;;19.50;61.90;;;;;;5031592;28;20017;-70
2022/05/08 00:56:38;;;;;;;0.88;0.88;;;19.50;61.90;;;;;;5015438;28;20028;-70
2022/05/08 00:59:04;;;;;;;0.93;0.93;;;19.50;61.90;;;;;;5032770;28;20100;-70
2022/05/08 01:01:29;;;;;;;0.77;0.77;;;19.50;61.90;;;;;;5031850;28;20021;-70
2022/05/08 01:03:55;;;;;;;1.33;1.00;;;19.50;61.90;;;;;;5032944;28;20068;-70
2022/05/08 01:06:20;;;;;;;1.05;0.95;;;19.50;61.90;;;;;;5032674;28;20045;-70
2022/05/08 01:08:48;;;;;;;1.20;1.10;;;19.50;61.90;;;;;;5032810;28;20029;-70
2022/05/08 01:11:14;;;;;;;0.88;0.88;;;19.50;61.90;;;;;;5015283;28;20027;-70
2022/05/08 01:13:40;;;;;;;1.23;1.10;;;19.50;61.90;;;;;;5032627;28;20399;-70
2022/05/08 01:16:08;;;;;;;0.93;0.90;;;19.50;61.90;;;;;;5015530;28;20032;-70
2022/05/08 01:18:33;;;;;;;1.05;1.00;;;19.50;61.90;;;;;;5031454;28;20411;-70
2022/05/08 01:20:59;;;;;;;1.20;1.10;;;19.50;61.90;;;;;;5032446;28;20029;-70
2022/05/08 01:23:24;;;;;;;0.88;0.88;;;19.50;61.90;;;;;;5032712;28;20025;-70
2022/05/08 01:25:54;;;;;;;0.90;0.90;;;19.50;61.90;;;;;;5032305;28;20017;-70
2022/05/08 01:28:21;;;;;;;0.82;0.82;;;19.50;61.90;;;;;;5031278;28;20036;-70
2022/05/08 01:30:47;;;;;;;1.23;1.13;;;19.50;61.90;;;;;;5015113;28;20021;-70
2022/05/08 01:33:13;;;;;;;0.80;0.80;;;19.50;61.90;;;;;;5032438;28;20056;-70
2022/05/08 01:35:39;;;;;;;1.20;1.10;;;19.50;61.90;;;;;;5031297;28;20049;-70
2022/05/08 01:38:05;;;;;;;0.98;0.98;;;19.50;61.90;;;;;;5031397;28;20083;-70
2022/05/08 01:40:31;;;;;;;0.90;0.90;;;19.40;61.80;;;;;;5031855;28;20061;-70
2022/05/08 01:42:57;;;;;;;1.00;1.00;;;19.40;61.80;;;;;;5030943;28;20080;-70
2022/05/08 01:45:22;;;;;;;1.00;0.90;;;19.40;61.80;;;;;;5035176;28;20017;-70
2022/05/08 01:50:33;;;;;;;0.95;0.90;;;19.40;61.80;;;;;;5036639;28;20119;-70
2022/05/08 01:52:59;;;;;;;1.23;1.10;;;19.40;61.90;;;;;;5035323;28;20435;-70
2022/05/08 01:55:25;;;;;;;0.88;0.88;;;19.40;61.80;;;;;;5036292;28;20546;-70
2022/05/08 01:57:50;;;;;;;1.40;1.30;;;19.40;61.80;;;;;;5036284;28;20033;-70
2022/05/08 02:00:16;;;;;;;1.20;0.90;;;19.40;61.80;;;;;;5036227;28;20036;-70
2022/05/08 02:02:44;;;;;;;1.27;1.02;;;19.40;61.80;;;;;;5036442;28;20028;-70
2022/05/08 02:05:10;;;;;;;1.00;1.00;;;19.40;61.80;;;;;;5034991;28;20104;-70
2022/05/08 02:07:35;;;;;;;0.95;0.95;;;19.40;61.80;;;;;;5036120;28;20105;-70
2022/05/08 02:10:01;;;;;;;1.40;1.30;;;19.40;61.80;;;;;;5035928;28;20056;-70
2022/05/08 02:12:26;;;;;;;1.20;1.10;;;19.40;61.80;;;;;;5001967;28;20029;-70
2022/05/08 02:14:52;;;;;;;1.05;1.05;;;19.40;61.80;;;;;;5036115;28;20029;-70
2022/05/08 02:17:18;;;;;;;1.20;1.10;;;19.40;61.80;;;;;;5035867;28;20026;-70
2022/05/08 02:19:44;;;;;;;1.15;1.05;;;19.40;61.80;;;;;;5034659;28;20017;-70
2022/05/08 02:22:09;;;;;;;1.20;1.10;;;19.40;61.80;;;;;;5034712;28;20108;-70
2022/05/08 02:24:35;;;;;;;1.10;1.10;;;19.40;61.80;;;;;;5035827;28;20105;-70
2022/05/08 02:27:01;;;;;;;0.90;0.90;;;19.30;61.70;;;;;;5034664;28;20144;-70
2022/05/08 02:29:27;;;;;;;1.10;1.00;;;19.30;61.80;;;;;;5034724;28;20021;-70
2022/05/08 02:31:52;;;;;;;0.90;0.90;;;19.30;61.80;;;;;;5035552;28;20495;-70
2022/05/08 02:34:18;;;;;;;1.20;1.10;;;19.40;61.80;;;;;;5035686;28;20033;-70
2022/05/08 02:36:43;;;;;;;1.30;1.20;;;19.30;61.70;;;;;;5035872;28;20036;-70
2022/05/08 02:39:09;;;;;;;1.02;1.02;;;19.30;61.70;;;;;;5034035;28;20029;-70
2022/05/08 02:41:35;;;;;;;1.05;1.05;;;19.30;61.80;;;;;;5034134;28;20093;-70
2022/05/08 02:44:00;;;;;;;0.90;0.90;;;19.30;61.70;;;;;;5035487;28;20503;-70
2022/05/08 02:46:26;;;;;;;1.20;1.10;;;19.30;61.70;;;;;;5035402;28;20040;-70
2022/05/08 02:48:51;;;;;;;1.30;1.20;;;19.40;61.80;;;;;;5035344;28;20029;-70
2022/05/08 02:51:17;;;;;;;1.35;1.10;;;19.30;61.80;;;;;;5035473;28;20083;-70
2022/05/08 02:53:43;;;;;;;1.20;1.10;;;19.30;61.70;;;;;;5034995;28;20448;-70
2022/05/08 02:58:52;;;;;;;1.00;0.90;;;19.30;61.70;;;;;;5035326;28;20083;-70
2022/05/08 03:01:18;;;;;;;1.13;1.13;;;19.30;61.80;;;;;;5035242;28;20029;-70
2022/05/08 03:03:44;;;;;;;1.00;1.00;;;19.30;61.70;;;;;;5035159;28;20018;-70
2022/05/08 03:06:10;;;;;;;1.23;1.10;;;19.30;61.70;;;;;;5033997;28;20060;-70
2022/05/08 03:08:35;;;;;;;1.13;1.10;;;19.30;61.70;;;;;;5033547;28;20079;-70
2022/05/08 03:13:45;;;;;;;1.00;1.00;;;19.30;61.80;;;;;;5035098;28;20565;-70
2022/05/08 03:16:11;;;;;;;1.40;1.08;;;19.30;61.70;;;;;;5033809;28;20033;-70
2022/05/08 03:18:39;;;;;;;1.20;1.10;;;19.30;61.70;;;;;;5017311;28;20104;-70
2022/05/08 03:21:05;;;;;;;1.13;1.13;;;19.30;61.70;;;;;;5033483;28;20112;-70
2022/05/08 03:23:31;;;;;;;1.10;1.00;;;19.30;61.70;;;;;;5033460;28;20021;-70
2022/05/08 03:25:57;;;;;;;1.00;1.00;;;19.20;61.70;;;;;;5033544;28;20084;-70
2022/05/08 03:28:22;;;;;;;1.30;1.20;;;19.30;61.70;;;;;;5033314;28;20087;-70
2022/05/08 03:30:48;;;;;;;0.90;0.90;;;19.30;61.70;;;;;;5034884;28;20029;-70
2022/05/08 03:33:14;;;;;;;1.30;1.20;;;19.20;61.70;;;;;;5033317;28;20080;-70
2022/05/08 03:35:40;;;;;;;1.20;1.10;;;19.20;61.70;;;;;;5033276;28;20096;-70
2022/05/08 03:38:06;;;;;;;0.93;0.93;;;19.30;61.70;;;;;;5016704;28;20450;-70
2022/05/08 03:40:35;;;;;;;1.02;1.02;;;19.20;61.70;;;;;;5032959;28;20025;-70
2022/05/08 03:43:01;;;;;;;1.33;1.23;;;19.20;61.60;;;;;;5034150;28;20069;-70
2022/05/08 03:45:27;;;;;;;1.00;1.00;;;19.20;61.60;;;;;;5033408;28;20052;-70
2022/05/08 03:47:53;;;;;;;1.08;1.08;;;19.20;61.60;;;;;;5016413;28;20025;-70
2022/05/08 03:50:21;;;;;;;1.00;1.00;;;19.20;61.60;;;;;;5034381;28;20101;-70
2022/05/08 03:52:47;;;;;;;1.02;1.02;;;19.20;61.60;;;;;;5032901;28;20021;-70
2022/05/08 03:55:15;;;;;;;1.20;1.10;;;19.20;61.70;;;;;;5032993;28;20026;-70
2022/05/08 03:57:41;;;;;;;1.30;1.20;;;19.20;61.60;;;;;;5032982;28;20496;-70
2022/05/08 04:00:07;;;;;;;1.30;1.27;;;19.20;61.60;;;;;;5033015;28;20030;-70
2022/05/08 04:02:33;;;;;;;1.40;1.30;;;19.20;62.60;;;;;;5033042;28;20519;-70
2022/05/08 04:05:02;;;;;;;1.63;1.52;;;19.20;61.50;;;;;;5032850;28;20025;-70
2022/05/08 04:07:29;;;;;;;1.60;1.50;;;19.20;61.60;;;;;;5031730;28;20377;-70
2022/05/08 04:09:54;;;;;;;1.42;1.33;;;19.20;61.70;;;;;;5032305;28;20097;-70
2022/05/08 04:12:20;;;;;;;1.30;1.20;;;19.20;61.50;;;;;;5016238;28;20025;-70
2022/05/08 04:14:46;;;;;;;1.35;1.23;;;19.20;61.60;;;;;;5034478;28;20022;-70
2022/05/08 04:17:11;;;;;;;1.20;1.00;;;19.20;61.50;;;;;;5033543;28;20034;-70
2022/05/08 04:19:37;;;;;;;1.50;1.40;;;19.20;61.50;;;;;;5032302;28;20104;-70
2022/05/08 04:24:48;;;;;;;1.35;1.25;;;19.20;61.50;;;;;;5033616;28;20028;-70
2022/05/08 04:27:13;;;;;;;1.25;1.15;;;19.20;61.60;;;;;;5032362;28;20029;-70
2022/05/08 04:29:39;;;;;;;1.40;1.30;;;19.10;61.50;;;;;;5032184;28;20125;-70
2022/05/08 04:32:05;;;;;;;1.45;1.33;;;19.20;61.50;;;;;;5033518;28;20063;-70
2022/05/08 04:34:30;;;;;;;1.20;1.10;;;19.10;61.50;;;;;;5033323;28;20100;-70
2022/05/08 04:36:56;;;;;;;1.30;1.20;;;19.20;61.60;;;;;;5033358;28;20048;-70
2022/05/08 04:39:22;;;;;;;1.30;1.20;;;19.20;61.60;;;;;;5033300;28;20072;-70
2022/05/08 04:41:47;;;;;;;1.25;1.10;;;19.10;61.50;;;;;;5033039;28;20567;-70
2022/05/08 04:44:13;;;;;;;1.40;1.30;;;19.10;61.50;;;;;;5033078;28;20021;-70
2022/05/08 04:46:38;;;;;;;1.35;1.25;;;19.10;61.50;;;;;;5032036;28;20083;-70
2022/05/08 04:49:04;;;;;;;1.40;1.30;;;19.10;61.50;;;;;;5032851;28;20550;-70
2022/05/08 04:51:30;;;;;;;1.83;1.30;;;19.10;61.50;;;;;;5033197;28;20034;-70
2022/05/08 04:53:56;;;;;;;1.10;1.10;;;19.10;61.50;;;;;;5015692;28;20052;-70
2022/05/08 04:56:21;;;;;;;1.35;1.25;;;19.10;61.50;;;;;;5032955;28;20057;-70
2022/05/08 04:58:48;;;;;;;1.30;1.20;;;19.10;61.50;;;;;;5033104;28;20044;-70
2022/05/08 05:01:14;;;;;;;1.55;1.45;;;19.10;61.40;;;;;;5015419;28;20030;-70
2022/05/08 05:03:39;;;;;;;1.48;1.38;;;19.10;61.50;;;;;;5014982;28;20373;-70
2022/05/08 05:06:05;;;;;;;1.25;1.15;;;19.10;61.50;;;;;;5033001;28;20026;-70
2022/05/08 05:08:30;;;;;;;1.40;1.20;;;19.10;61.50;;;;;;5032642;28;20448;-70
2022/05/08 05:10:56;;;;;;;1.40;1.30;;;19.10;61.50;;;;;;5033033;28;20105;-70
2022/05/08 05:13:22;;;;;;;1.10;1.10;;;19.10;61.50;;;;;;5032981;28;20494;-70
2022/05/08 05:15:47;;;;;;;1.40;1.20;;;19.10;61.40;;;;;;5031481;28;20606;-70
2022/05/08 05:18:13;;;;;;;1.17;1.08;;;19.10;61.40;;;;;;5032445;28;20087;-70
2022/05/08 05:20:39;;;;;;;1.70;1.38;;;19.10;61.40;;;;;;5032253;28;20075;-70
2022/05/08 05:23:04;;;;;;;1.35;1.25;;;19.10;61.40;;;;;;5032579;28;20017;-70
2022/05/08 05:25:30;;;;;;;1.30;1.20;;;19.10;61.40;;;;;;5032764;28;20029;-70
2022/05/08 05:27:56;;;;;;;1.13;1.02;;;19.10;61.40;;;;;;5032542;28;20480;-70
2022/05/08 05:30:21;;;;;;;1.50;1.40;;;19.10;61.40;;;;;;5031362;28;20035;-70
2022/05/08 05:32:47;;;;;;;1.35;1.25;;;19.10;61.40;;;;;;5032192;28;20029;-70
2022/05/08 05:35:13;;;;;;;1.60;1.50;;;19.10;61.50;;;;;;5031389;28;20026;-70
2022/05/08 05:37:39;;;;;;;1.38;1.27;;;19.00;61.30;;;;;;5014711;28;20022;-70
2022/05/08 05:40:06;;;;;;;1.10;1.10;;;19.10;61.40;;;;;;5014767;28;20108;-70
2022/05/08 05:42:32;;;;;;;1.20;1.10;;;19.10;61.40;;;;;;5031115;28;20088;-70
2022/05/08 05:44:59;;;;;;;1.50;1.40;;;19.00;61.30;;;;;;5031291;28;20057;-70
2022/05/08 05:50:09;;;;;;;1.45;1.35;;;19.00;61.30;;;;;;5032370;28;20095;-70
2022/05/08 05:52:35;;;;;;;1.40;1.30;;;19.00;61.30;;;;;;5014703;28;20476;-70
2022/05/08 05:55:03;;;;;;;1.60;1.50;;;19.00;61.40;;;;;;5031176;28;20029;-70
2022/05/08 05:57:28;;;;;;;1.25;1.23;;;19.00;61.30;;;;;;5032291;28;20488;-70
2022/05/08 05:59:54;;;;;;;1.30;1.20;;;19.00;61.30;;;;;;5032294;28;20036;-70
2022/05/08 06:02:19;;;;;;;1.48;1.38;;;19.00;61.30;;;;;;5030794;28;20108;-70
2022/05/08 06:04:45;;;;;;;1.02;1.02;;;19.00;61.30;;;;;;5032316;28;20029;-70
2022/05/08 06:07:11;;;;;;;1.30;1.20;;;19.00;61.30;;;;;;5032222;28;20013;-70
2022/05/08 06:09:36;;;;;;;1.38;1.27;;;19.00;61.30;;;;;;5031897;28;20022;-70
2022/05/08 06:12:03;;;;;;;1.40;1.30;;;19.00;61.30;;;;;;5032480;28;20124;-70
2022/05/08 06:14:29;;;;;;;1.63;1.35;;;19.00;61.30;;;;;;5032265;28;20056;-70
2022/05/08 06:16:55;;;;;;;1.55;1.10;;;19.00;61.30;;;;;;5031932;28;20025;-70
2022/05/08 06:19:21;;;;;;;1.40;1.30;;;19.00;61.20;;;;;;5032050;28;20112;-70
2022/05/08 06:21:47;;;;;;;1.60;1.50;;;19.00;61.20;;;;;;5030780;28;20096;-70
2022/05/08 06:24:12;;;;;;;1.63;1.52;;;19.00;61.20;;;;;;5032102;28;20377;-70
2022/05/08 06:26:38;;;;;;;1.30;1.20;;;19.00;61.20;;;;;;5014566;28;20033;-70
2022/05/08 06:29:04;;;;;;;1.40;1.30;;;18.90;61.20;;;;;;5030726;28;20083;-70
2022/05/08 06:31:30;;;;;;;1.17;1.13;;;19.00;61.30;;;;;;5031751;28;20424;-70
2022/05/08 06:33:55;;;;;;;1.10;1.10;;;19.00;61.20;;;;;;5034578;28;20396;-70
2022/05/08 06:36:21;;;;;;;1.10;1.10;;;19.00;61.20;;;;;;5034529;28;20391;-70
2022/05/08 06:43:48;;;;;;;1.40;1.30;;;19.00;61.30;;;;;;5013928;28;20056;-74
2022/05/08 06:46:14;;;;;;;1.70;1.10;;;18.90;61.20;;;;;;4997856;28;20034;-75
2022/05/08 06:48:39;;;;;;;1.08;1.08;;;19.00;61.20;;;;;;4994323;28;20030;-74
2022/05/08 06:51:05;;;;;;;1.30;1.20;;;19.00;61.20;;;;;;4975574;28;20447;-74
2022/05/08 06:53:31;;;;;;;1.10;1.00;;;18.90;61.20;;;;;;4975328;28;20619;-74
2022/05/08 06:55:57;;;;;;;1.30;1.20;;;19.00;61.20;;;;;;4975095;28;20440;-74
2022/05/08 06:58:24;;;;;;;1.20;0.90;;;18.90;61.20;;;;;;4986334;28;20030;-74
2022/05/08 07:03:35;;;;;;;0.80;0.80;;;18.90;61.20;;;;;;4995016;28;20037;-74
2022/05/08 07:06:01;;;;;;;1.10;1.10;;;18.90;61.20;;;;;;4994580;28;20031;-75
2022/05/08 07:08:27;;;;;;;0.90;0.90;;;18.90;61.20;;;;;;4995859;28;20026;-74
2022/05/08 07:10:52;;;;;;;1.17;1.08;;;18.90;61.20;;;;;;4995538;28;20018;-75
2022/05/08 07:13:22;;;;;;;1.38;1.23;;;18.90;61.20;;;;;;4995910;28;20029;-74
2022/05/08 07:15:48;;;;;;;1.00;1.00;;;18.90;61.20;;;;;;4980299;28;20062;-74
2022/05/08 07:18:13;;;;;;;1.20;1.10;;;18.90;61.20;;;;;;4976164;28;20497;-74
2022/05/08 07:20:39;;;;;;;1.30;1.20;;;18.90;61.20;;;;;;4974906;28;20400;-75
2022/05/08 07:23:05;;;;;;;1.00;0.90;;;18.90;61.20;;;;;;4976442;28;20114;-74
2022/05/08 07:25:30;;;;;;;1.00;1.00;;;18.90;61.20;;;;;;4975753;28;20098;-74
2022/05/08 07:27:56;;;;;;;1.17;1.08;;;18.90;61.20;;;;;;4975986;28;20023;-74
2022/05/08 07:30:22;;;;;;;1.20;1.10;;;18.90;61.20;;;;;;4975925;28;20037;-74
2022/05/08 07:32:48;;;;;;;1.08;1.00;;;18.90;61.20;;;;;;4975777;28;20034;-74
2022/05/08 07:37:59;;;;;;;1.02;1.02;;;18.90;61.20;;;;;;4974870;28;20061;-74
2022/05/08 07:40:26;;;;;;;1.20;1.10;;;18.90;61.20;;;;;;4975602;28;20054;-74
2022/05/08 07:42:52;;;;;;;1.30;1.20;;;18.90;61.20;;;;;;4975349;28;20047;-74
2022/05/08 07:45:17;;;;;;;1.20;1.10;;;18.90;61.20;;;;;;5007516;28;20030;-74
2022/05/08 07:47:43;;;;;;;1.20;1.10;;;18.80;61.10;;;;;;5013420;28;20076;-74
2022/05/08 07:50:09;;;;;;;1.15;1.05;;;18.90;61.20;;;;;;5013504;28;20030;-74
2022/05/08 07:52:39;;;;;;;1.38;1.27;;;18.80;61.10;;;;;;5013445;28;20572;-74
2022/05/08 07:55:05;;;;;;;1.45;1.35;;;18.90;61.20;;;;;;4980820;28;20022;-74
2022/05/08 07:57:31;;;;;;;1.27;0.98;;;18.80;61.10;;;;;;5029708;28;20112;-74
2022/05/08 07:59:57;;;;;;;1.08;1.05;;;18.90;62.20;;;;;;5013155;28;20443;-74
2022/05/08 08:02:22;;;;;;;1.17;1.08;;;18.80;61.10;;;;;;5014393;28;20596;-74
2022/05/08 08:04:48;;;;;;;1.33;1.00;;;18.90;61.20;;;;;;5013021;28;20018;-74
2022/05/08 08:07:14;;;;;;;1.00;1.00;;;18.80;61.20;;;;;;5013255;28;20030;-74
2022/05/08 08:09:40;;;;;;;1.20;1.15;;;18.80;61.20;;;;;;5014246;28;20141;-74
2022/05/08 08:12:06;;;;;;;1.00;1.00;;;18.80;61.20;;;;;;4996953;28;20029;-74
2022/05/08 08:14:31;;;;;;;0.95;0.90;;;18.80;61.10;;;;;;5012797;28;20083;-74
2022/05/08 08:16:57;;;;;;;1.00;1.00;;;18.80;61.20;;;;;;5013004;28;20109;-74
2022/05/08 08:19:23;;;;;;;1.30;1.00;;;18.90;61.30;;;;;;4996935;28;20153;-74
2022/05/08 08:21:48;;;;;;;1.30;1.20;;;18.80;61.20;;;;;;4992967;28;20029;-74
2022/05/08 08:24:14;;;;;;;0.95;0.90;;;18.80;61.20;;;;;;4994266;28;20034;-74
2022/05/08 08:26:41;;;;;;;1.17;1.10;;;18.80;61.20;;;;;;4994434;28;20026;-74
2022/05/08 08:29:07;;;;;;;1.30;0.98;;;18.80;61.20;;;;;;4994421;28;20074;-74
2022/05/08 08:31:33;;;;;;;1.30;1.20;;;18.80;61.20;;;;;;4993048;28;20026;-74
2022/05/08 08:33:59;;;;;;;1.30;1.20;;;18.80;61.20;;;;;;4993022;28;20085;-74
2022/05/08 08:36:24;;;;;;;1.05;1.00;;;18.80;61.20;;;;;;4992810;28;20034;-74
2022/05/08 08:38:50;;;;;;;1.10;1.00;;;18.80;61.20;;;;;;4992955;28;20057;-74
2022/05/08 08:41:17;;;;;;;1.05;1.00;;;18.80;61.20;;;;;;4992662;28;20133;-74
2022/05/08 08:49:21;;;;;;;0.80;0.80;;;18.80;61.20;;;;;;4998856;28;20072;-74
2022/05/08 08:51:48;;;;;;;1.27;1.17;;;18.80;61.20;;;;;;4995854;28;20069;-74
2022/05/08 08:54:20;;;;;;;0.88;0.88;;;18.80;61.30;;;;;;5011678;28;20077;-74
2022/05/08 08:56:46;;;;;;;1.20;1.10;;;18.80;61.30;;;;;;4996685;28;20443;-74
2022/05/08 08:59:12;;;;;;;1.08;1.00;;;18.80;61.30;;;;;;5012454;28;20080;-74
2022/05/08 09:01:42;;;;;;;0.82;0.82;;;18.80;61.30;;;;;;5013175;28;20487;-74
2022/05/08 09:04:09;;;;;;;1.30;1.20;;;18.80;61.30;;;;;;5012171;28;20010;-74
2022/05/08 09:06:43;;;;;;;0.90;0.90;;;18.80;61.30;;;;;;5012048;28;20432;-74
2022/05/08 09:09:27;;;;;;;1.52;1.08;;;18.80;61.20;;;;;;5012262;28;20022;-74
2022/05/08 09:11:54;;;;;;;1.20;1.00;;;18.80;61.10;;;;;;4996218;28;20514;-74
2022/05/08 09:14:33;;;;;;;1.00;1.00;;;18.80;61.30;;;;;;5012081;28;20085;-74
2022/05/08 09:17:00;;;;;;;0.90;0.90;;;18.80;61.20;;;;;;5013142;28;20018;-74
2022/05/08 09:19:38;;;;;;;1.30;1.20;;;18.80;61.40;;;;;;5011814;28;20056;-74
2022/05/08 09:22:09;;;;;;;1.20;1.10;;;18.80;61.30;;;;;;5011719;28;20488;-74
2022/05/08 09:24:35;;;;;;;1.10;1.00;;;18.80;61.30;;;;;;4995900;28;20479;-74
2022/05/08 09:27:14;;;;;;;1.13;1.02;;;18.80;61.30;;;;;;5012879;28;20033;-74
2022/05/08 09:29:43;;;;;;;1.00;1.00;;;18.80;61.20;;;;;;4996002;28;20021;-74
2022/05/08 09:32:09;;;;;;;0.88;0.88;;;18.80;61.30;;;;;;5012882;28;20026;-74
2022/05/08 09:34:53;;;;;;;0.88;0.88;;;18.80;61.30;;;;;;5011349;28;20018;-74
2022/05/08 09:37:19;;;;;;;1.10;1.00;;;18.80;61.20;;;;;;5013108;28;20034;-74
2022/05/08 09:39:45;;;;;;;1.27;1.00;;;18.80;61.40;;;;;;5012701;28;20507;-74
2022/05/08 09:42:36;;;;;;;1.02;0.98;;;18.80;61.40;;;;;;5012753;28;20025;-74
2022/05/08 09:45:07;;;;;;;0.80;0.80;;;18.80;61.20;;;;;;4995000;28;20184;-74
2022/05/08 09:47:42;;;;;;;1.00;1.00;;;18.80;61.50;;;;;;5012761;28;20518;-74
2022/05/08 09:50:09;;;;;;;1.13;1.02;;;18.80;61.40;;;;;;5011391;28;20033;-74
2022/05/08 09:52:36;;;;;;;1.20;1.10;;;18.80;61.50;;;;;;4995492;28;20026;-74
2022/05/08 09:55:02;;;;;;;1.27;1.08;;;18.80;61.40;;;;;;5011379;28;20026;-74
2022/05/08 09:57:27;;;;;;;1.10;0.80;;;18.80;61.40;;;;;;5012708;28;20018;-74
2022/05/08 09:59:53;;;;;;;0.93;0.93;;;18.80;61.40;;;;;;5011559;28;20036;-74
2022/05/08 10:02:19;;;;;;;1.20;1.08;;;18.80;61.40;;;;;;5011367;28;20018;-74
2022/05/08 10:04:45;;;;;;;1.10;1.00;;;18.80;61.40;;;;;;5011255;28;20029;-74
2022/05/08 10:07:12;;;;;;;1.20;1.10;;;18.80;61.40;;;;;;4997489;28;20029;-74
2022/05/08 10:15:31;;;;;;;1.30;1.20;;;18.80;61.40;;;;;;5001570;28;20033;-74
2022/05/08 10:18:19;;;;;;;1.10;1.00;;;18.80;61.30;;;;;;5000395;28;20025;-74
2022/05/08 10:21:03;;;;;;;1.02;1.00;;;18.80;61.30;;;;;;5016164;28;20081;-74
2022/05/08 10:23:39;;;;;;;1.20;1.10;;;18.80;61.40;;;;;;5015281;28;20022;-74
2022/05/08 10:26:15;;;;;;;0.90;0.90;;;18.80;61.50;;;;;;5014758;28;20458;-74
2022/05/08 10:29:13;;;;;;;1.00;1.00;;;18.80;61.50;;;;;;5016083;28;20403;-74
2022/05/08 10:31:41;;;;;;;1.20;1.10;;;18.80;61.30;;;;;;4997893;28;20030;-74
2022/05/08 10:34:07;;;;;;;1.15;1.08;;;18.70;61.40;;;;;;5014716;28;20025;-74
2022/05/08 10:36:32;;;;;;;0.77;0.77;;;18.70;61.40;;;;;;4998642;28;20021;-74
2022/05/08 10:39:37;;;;;;;1.30;1.15;;;18.70;61.40;;;;;;5014875;28;20049;-74
2022/05/08 10:42:02;;;;;;;0.95;0.95;;;18.80;61.30;;;;;;5016084;28;20097;-74
2022/05/08 10:44:39;;;;;;;1.30;1.17;;;18.70;61.50;;;;;;5014580;28;20084;-74
2022/05/08 10:47:41;;;;;;;0.90;0.90;;;18.70;61.40;;;;;;5014396;28;20014;-74
2022/05/08 10:50:07;;;;;;;1.13;0.90;;;18.80;61.40;;;;;;5015970;28;20026;-74
2022/05/08 10:52:33;;;;;;;1.38;1.27;;;18.70;61.40;;;;;;5014688;28;20022;-74
2022/05/08 10:55:00;;;;;;;0.80;0.80;;;18.70;61.40;;;;;;5014417;28;20053;-74
2022/05/08 10:57:32;;;;;;;1.00;1.00;;;18.70;61.40;;;;;;5014504;28;20538;-74
2022/05/08 10:59:59;;;;;;;1.73;1.08;;;18.70;61.40;;;;;;4998133;28;20026;-74
2022/05/08 11:02:45;;;;;;;0.90;0.90;;;18.70;61.40;;;;;;4998179;28;20025;-74
2022/05/08 11:05:12;;;;;;;1.23;1.13;;;18.80;61.40;;;;;;5014406;28;20387;-74
2022/05/08 11:07:39;;;;;;;1.38;1.10;;;18.70;61.40;;;;;;5014380;28;20006;-74
2022/05/08 11:10:38;;;;;;;1.17;1.08;;;18.70;61.50;;;;;;5015488;28;20038;-74
2022/05/08 11:13:05;;;;;;;1.05;1.02;;;18.80;61.30;;;;;;4993552;28;20555;-75
2022/05/08 11:15:34;;;;;;;1.25;1.15;;;18.70;61.40;;;;;;4993573;28;20050;-74
2022/05/08 11:18:10;;;;;;;1.02;1.02;;;18.70;61.50;;;;;;4977008;28;20520;-74
2022/05/08 11:20:53;;;;;;;1.27;1.17;;;18.80;61.50;;;;;;4993581;28;20035;-74
2022/05/08 11:23:22;;;;;;;1.40;0.88;;;18.80;61.50;;;;;;4977458;28;20039;-74
2022/05/08 11:25:53;;;;;;;1.02;0.90;;;18.70;61.40;;;;;;4977332;28;20054;-74
2022/05/08 11:28:20;;;;;;;1.02;1.00;;;18.70;61.50;;;;;;4993265;28;20045;-74
2022/05/08 11:30:46;;;;;;;1.13;1.08;;;18.70;61.40;;;;;;4961040;28;20039;-74
2022/05/08 11:36:04;;;;;;;1.05;1.02;;;18.70;61.50;;;;;;4965970;28;20100;-74
2022/05/08 11:38:42;;;;;;;1.10;1.00;;;18.70;61.40;;;;;;4978015;28;20492;-74
2022/05/08 11:41:09;;;;;;;1.23;1.13;;;18.70;61.40;;;;;;4993203;28;20046;-74
2022/05/08 11:43:41;;;;;;;0.90;0.90;;;18.70;61.40;;;;;;4960945;28;20098;-74
2022/05/08 11:46:10;;;;;;;0.82;0.82;;;18.70;61.50;;;;;;4976244;28;20031;-74
2022/05/08 11:48:42;;;;;;;0.82;0.80;;;18.70;61.40;;;;;;4993208;28;20030;-74
2022/05/08 11:51:08;;;;;;;;;;;18.70;61.40;;;;;;5014066;28;20022;-74
2022/05/08 11:53:45;;;;;;;1.55;0.77;;;18.70;61.40;;;;;;5013556;28;20326;-74
2022/05/08 11:56:21;;;;;;;1.17;0.90;;;18.70;61.70;;;;;;4997617;28;20026;-74
2022/05/08 11:58:47;;;;;;;0.75;0.75;;;18.70;61.50;;;;;;5014602;28;20451;-74
2022/05/08 12:01:33;;;;;;;0.90;0.90;;;18.70;61.60;;;;;;5012935;28;20101;-74
2022/05/08 12:04:26;;;;;;;1.20;1.10;;;18.70;61.40;;;;;;4996960;28;20373;-74
2022/05/08 12:07:10;;;;;;;0.90;0.90;;;18.80;61.50;;;;;;5014258;28;20108;-74
2022/05/08 12:09:36;;;;;;;0.82;0.82;;;18.70;61.50;;;;;;5013113;28;20502;-74
2022/05/08 12:12:22;;;;;;;1.00;0.90;;;18.70;61.50;;;;;;5014152;28;20057;-74
2022/05/08 12:14:47;;;;;;;0.90;0.90;;;18.70;61.40;;;;;;5013938;28;20101;-74
2022/05/08 12:17:13;;;;;;;1.02;1.02;;;18.70;61.60;;;;;;5012977;28;20101;-74
2022/05/08 12:19:55;;;;;;;1.25;1.20;;;18.70;61.50;;;;;;5012804;28;20440;-74
2022/05/08 12:22:28;;;;;;;2.15;1.00;;;18.80;61.50;;;;;;5012804;28;20053;-74
2022/05/08 12:24:54;;;;;;;0.98;0.90;;;18.70;61.40;;;;;;5014068;28;20022;-74
2022/05/08 12:27:20;;;;;;;1.20;1.10;;;18.70;61.40;;;;;;4996686;28;20042;-74
2022/05/08 12:29:46;;;;;;;1.20;0.90;;;18.70;61.40;;;;;;5011724;28;20080;-74
2022/05/08 12:32:15;;;;;;;1.08;0.93;;;18.70;61.40;;;;;;5012723;28;20452;-74
2022/05/08 12:34:41;;;;;;;0.77;0.77;;;18.70;61.40;;;;;;5012692;28;20033;-74
2022/05/08 12:37:08;;;;;;;0.95;0.95;;;18.70;61.40;;;;;;5012658;28;20110;-74
2022/05/08 12:39:34;;;;;;;0.80;0.80;;;18.70;61.40;;;;;;5012617;28;20022;-74
2022/05/08 12:42:00;;;;;;;0.90;0.90;;;18.70;61.40;;;;;;5013772;28;20022;-74
2022/05/08 12:44:25;;;;;;;1.13;1.02;;;18.70;61.40;;;;;;5012021;28;20478;-74
2022/05/08 12:46:51;;;;;;;1.52;1.13;;;18.80;61.50;;;;;;5013577;28;20026;-74
2022/05/08 12:49:17;;;;;;;1.30;1.13;;;18.70;61.50;;;;;;4996020;28;20030;-74
2022/05/08 12:51:44;;;;;;;1.27;1.00;;;18.70;61.40;;;;;;5012520;28;20033;-74
2022/05/08 12:54:10;;;;;;;0.82;0.82;;;18.80;61.50;;;;;;5013378;28;20022;-74
2022/05/08 12:56:35;;;;;;;0.90;0.90;;;18.80;61.50;;;;;;5013526;28;20040;-74
2022/05/08 13:01:46;;;;;;;0.90;0.90;;;18.80;61.50;;;;;;4998659;28;20032;-74
2022/05/08 13:04:12;;;;;;;0.90;0.90;;;18.80;61.60;;;;;;5012271;28;20029;-74
2022/05/08 13:06:37;;;;;;;0.88;0.88;;;18.80;61.50;;;;;;5013280;28;20033;-74
2022/05/08 13:09:04;;;;;;;1.02;1.00;;;18.80;61.50;;;;;;4995851;28;20033;-74
2022/05/08 13:11:30;;;;;;;1.00;0.90;;;18.80;61.50;;;;;;5013234;28;20022;-74
2022/05/08 13:13:55;;;;;;;1.13;1.02;;;18.80;61.50;;;;;;5012001;28;20037;-74
2022/05/08 13:16:22;;;;;;;0.80;0.80;;;18.80;61.60;;;;;;5011862;28;20029;-74
2022/05/08 13:18:48;;;;;;;1.02;0.93;;;18.80;61.50;;;;;;5011939;28;20034;-74
2022/05/08 13:21:14;;;;;;;1.77;1.10;;;18.80;61.60;;;;;;5013031;28;20181;-74
2022/05/08 13:23:40;;;;;;;1.13;1.02;;;18.80;61.60;;;;;;5011900;28;20029;-74
2022/05/08 13:26:05;;;;;;;1.23;1.13;;;18.80;61.60;;;;;;5012935;28;20407;-74
2022/05/08 13:28:33;;;;;;;0.77;0.77;;;18.80;61.50;;;;;;5012986;28;20476;-74
2022/05/08 13:30:59;;;;;;;0.90;0.90;;;18.80;61.60;;;;;;5011818;28;20384;-74